Champion, Indiana
Current Conditions -  °F | °C
As of 4:53 AM on Wednesday 26 Nov 2014 (Local Time) from KHUF Reporting Station
Scattered Clouds Scattered Clouds  
Wind Chill: 17°   Ceiling: Unl
Heat Index: 23°   Visibility: 10mi
Dew Point: 19°   Wind: 5mph
Humidity: 85%   Direction: 100°E
Pressure: 30.16"   Gusts: NA
Location:  39.5107°N, 87.4772°W
Report Text: KHUF 260953Z 10004KT 10SM SCT011 M05/M07 A3016 RMK AO2 SLP218 T10501072
Loading
Personal Weather Stations






























Interactive Weather Map New forecast layout! Learn more

10-Day Weather Forecast

Advertisements
Track Severe Weather on mobile